Time;durP1;ratioP1;P1;durP2;ratioP2;P2;SDS_P1;SDS_P2;PMS_P1;PMS_P2;Temp;Humidity;BMP_temperature;BMP_pressure;BME280_temperature;BME280_humidity;BME280_pressure;Samples;Min_cycle;Max_cycle;Signal;HPM_P1;HPM_P2
2022/01/02 00:00:25;;;;;;;;;22.75;21.25;;;;;12.96;70.69;101684.84;5076400;28;46301;-72
2022/01/02 00:02:52;;;;;;;;;23.00;21.00;;;;;13.03;70.73;101693.78;5057850;28;50246;-72
2022/01/02 00:05:20;;;;;;;;;21.25;19.75;;;;;12.98;70.43;101685.75;5076595;28;45523;-72
2022/01/02 00:07:53;;;;;;;;;21.75;18.50;;;;;12.99;70.66;101682.22;5076497;28;45419;-73
2022/01/02 00:10:20;;;;;;;;;20.00;17.25;;;;;13.00;70.64;101684.03;5074919;28;46291;-72
2022/01/02 00:12:50;;;;;;;;;24.00;22.33;;;;;13.02;70.46;101702.59;5057444;28;45455;-72
2022/01/02 00:15:16;;;;;;;;;21.00;19.00;;;;;13.09;70.51;101705.34;5064727;28;45379;-72
2022/01/02 00:17:41;;;;;;;;;25.67;20.00;;;;;13.09;70.41;101701.81;5060153;28;47172;-72
2022/01/02 00:20:12;;;;;;;;;21.50;18.00;;;;;13.10;70.39;101707.16;5061351;28;46738;-73
2022/01/02 00:22:40;;;;;;;;;19.50;19.50;;;;;13.10;70.31;101709.81;5079170;28;45390;-72
2022/01/02 00:25:11;;;;;;;;;27.00;19.50;;;;;13.12;70.28;101704.53;5080822;28;45525;-72
2022/01/02 00:27:37;;;;;;;;;23.25;20.25;;;;;13.08;70.26;101682.38;5077107;28;45326;-72
2022/01/02 00:30:06;;;;;;;;;20.67;19.00;;;;;13.15;70.15;101679.81;5061166;28;46490;-72
2022/01/02 00:32:35;;;;;;;;;24.67;23.33;;;;;13.15;70.13;101678.03;5077120;28;45332;-72
2022/01/02 00:35:01;;;;;;;;;20.33;20.33;;;;;13.14;70.11;101685.97;5061953;28;45550;-72
2022/01/02 00:37:26;;;;;;;;;21.00;18.25;;;;;13.08;70.01;101669.13;5074657;28;52531;-73
2022/01/02 00:39:52;;;;;;;;;20.33;15.33;;;;;13.10;70.05;101658.50;5074962;28;46439;-72
2022/01/02 00:42:28;;;;;;;;;21.33;20.33;;;;;13.19;69.68;101679.88;5058781;28;45403;-73
2022/01/02 00:45:08;;;;;;;;;23.33;21.33;;;;;13.13;69.68;101663.88;5068679;28;45515;-72
2022/01/02 00:47:36;;;;;;;;;22.00;20.00;;;;;13.25;69.67;101679.97;5058041;28;45395;-73
2022/01/02 00:50:09;;;;;;;;;25.25;21.00;;;;;13.17;69.87;101663.06;5075713;28;45745;-72
2022/01/02 00:52:39;;;;;;;;;22.00;20.33;;;;;13.26;69.69;101676.47;5217920;22;45320;-71
2022/01/02 00:55:09;;;;;;;;;22.00;17.67;;;;;13.29;69.48;101679.16;5092967;27;45305;-72
2022/01/02 00:57:36;;;;;;;;;21.33;21.00;;;;;13.29;69.23;101676.50;5074922;28;45591;-71
2022/01/02 01:00:10;;;;;;;;;18.50;18.25;;;;;13.31;69.53;101661.50;5072896;27;46553;-72
2022/01/02 01:02:48;;;;;;;;;19.50;19.50;;;;;13.33;69.62;101654.47;5097886;27;45461;-72
2022/01/02 01:05:24;;;;;;;;;22.25;22.25;;;;;13.35;69.47;101639.44;5099320;27;45401;-72
2022/01/02 01:07:52;;;;;;;;;19.33;19.33;;;;;13.29;69.32;101625.22;5096886;27;45358;-72
2022/01/02 01:10:18;;;;;;;;;22.00;18.67;;;;;13.39;69.35;101644.81;5098876;27;45449;-72
2022/01/02 01:12:45;;;;;;;;;22.00;17.67;;;;;13.38;69.34;101645.69;5080212;27;45394;-72
2022/01/02 01:15:10;;;;;;;;;23.00;19.00;;;;;13.40;69.36;101642.16;5099211;27;45513;-72
2022/01/02 01:17:37;;;;;;;;;23.00;18.00;;;;;13.40;69.29;101615.63;5056549;27;45571;-71
2022/01/02 01:20:08;;;;;;;;;20.67;18.00;;;;;13.32;69.55;101598.75;5096638;27;47641;-72
2022/01/02 01:22:33;;;;;;;;;17.67;16.00;;;;;13.41;69.47;101616.53;5078146;27;45489;-72
2022/01/02 01:24:59;;;;;;;;;21.00;17.67;;;;;13.42;69.29;101618.28;5099509;27;45927;-72
2022/01/02 01:27:24;;;;;;;;;20.67;16.67;;;;;13.42;69.40;101615.63;5096937;27;45429;-72
2022/01/02 01:29:50;;;;;;;;;22.00;17.00;;;;;13.41;69.16;101619.16;5078754;27;46478;-72
2022/01/02 01:32:15;;;;;;;;;20.00;18.00;;;;;13.42;69.16;101620.94;5080047;27;57825;-72
2022/01/02 01:34:41;;;;;;;;;18.00;16.33;;;;;13.43;69.31;101605.06;5098532;27;51415;-72
2022/01/02 01:37:06;;;;;;;;;19.00;15.00;;;;;13.44;69.14;101596.22;5094773;27;45531;-71
2022/01/02 01:39:32;;;;;;;;;19.67;17.33;;;;;13.45;68.87;101599.78;5074142;28;45644;-74
2022/01/02 01:42:06;;;;;;;;;20.00;15.67;;;;;13.46;69.11;101597.13;5075248;27;46171;-72
2022/01/02 01:47:12;;;;;;;;;15.67;15.67;;;;;13.48;68.71;101602.47;5096369;27;45869;-72
2022/01/02 01:49:37;;;;;;;;;18.33;16.00;;;;;13.47;68.61;101595.38;5074062;27;61587;-72
2022/01/02 01:52:03;;;;;;;;;19.33;17.67;;;;;13.43;68.63;101583.84;5097457;27;61965;-72
2022/01/02 01:54:28;;;;;;;;;20.33;17.67;;;;;13.49;68.74;101580.38;5078387;27;45388;-72
2022/01/02 01:56:54;;;;;;;;;24.33;17.33;;;;;13.48;68.27;101579.50;5078538;27;46055;-72
2022/01/02 01:59:19;;;;;;;;;15.33;13.67;;;;;13.46;68.63;101572.38;5080017;27;45757;-72
2022/01/02 02:01:45;;;;;;;;;19.00;15.33;;;;;13.48;68.62;101582.13;5080258;27;45680;-72
2022/01/02 02:04:11;;;;;;;;;21.33;16.33;;;;;13.49;68.02;101581.25;5090523;27;45376;-72
2022/01/02 02:06:37;;;;;;;;;17.00;14.00;;;;;13.50;68.23;101574.19;5098316;27;45366;-72
2022/01/02 02:09:06;;;;;;;;;22.00;18.00;;;;;13.41;67.81;101553.75;5094012;27;46797;-72
2022/01/02 02:11:32;;;;;;;;;15.00;15.00;;;;;13.50;68.04;101567.13;5097361;27;45529;-72
2022/01/02 02:13:58;;;;;;;;;15.67;15.67;;;;;13.49;67.97;101564.44;5050987;28;45378;-72
2022/01/02 02:16:23;;;;;;;;;18.33;12.00;;;;;13.50;67.97;101563.56;5078985;27;45553;-72
2022/01/02 02:18:49;;;;;;;;;16.33;13.33;;;;;13.49;68.19;101540.56;5059295;27;63981;-72
2022/01/02 02:21:14;;;;;;;;;16.00;14.67;;;;;13.52;67.97;101551.19;5074876;27;46119;-72
2022/01/02 02:23:39;;;;;;;;;18.67;16.67;;;;;13.52;68.08;101540.59;5080050;27;45840;-72
2022/01/02 02:26:05;;;;;;;;;19.67;13.00;;;;;13.52;67.54;101532.63;5098884;27;45592;-72
2022/01/02 02:28:30;;;;;;;;;17.33;16.00;;;;;13.51;67.74;101525.56;5091434;27;60364;-72
2022/01/02 02:30:56;;;;;;;;;14.67;14.33;;;;;13.50;67.64;101526.44;5097697;27;45563;-71
2022/01/02 02:33:21;;;;;;;;;14.33;13.67;;;;;13.51;68.05;101529.09;5098479;27;45304;-72
2022/01/02 02:35:47;;;;;;;;;13.33;13.33;;;;;13.50;67.85;101515.81;5095505;27;45454;-71
2022/01/02 02:38:14;;;;;;;;;15.00;14.67;;;;;13.51;67.74;101523.78;5055669;27;47660;-72
2022/01/02 02:40:40;;;;;;;;;17.00;14.00;;;;;13.51;68.01;101512.28;5096773;27;45575;-72
2022/01/02 02:43:53;;;;;;;;;14.33;13.33;;;;;13.54;67.23;101501.72;5063195;27;45569;-72
2022/01/02 02:51:38;;;;;;;;;19.33;14.00;;;;;13.54;67.58;101489.34;5089342;27;45162;-74
2022/01/02 02:54:04;;;;;;;;;16.67;14.00;;;;;13.53;67.62;101479.59;5097699;27;45490;-73
2022/01/02 02:56:42;;;;;;;;;15.33;15.33;;;;;13.47;67.34;101466.25;5098116;27;45553;-74
2022/01/02 02:59:07;;;;;;;;;15.00;14.00;;;;;13.58;67.22;101487.56;5087338;27;47825;-74
2022/01/02 03:01:32;;;;;;;;;15.67;14.67;;;;;13.55;67.41;101477.84;5077065;27;45363;-74
2022/01/02 03:03:58;;;;;;;;;13.33;13.33;;;;;13.60;67.24;101493.81;5077312;27;55150;-74
2022/01/02 03:06:23;;;;;;;;;17.00;15.00;;;;;13.60;67.03;101493.81;5079293;27;45301;-74
2022/01/02 03:08:49;;;;;;;;;16.33;14.00;;;;;13.60;67.60;101520.34;5078660;27;60010;-74
2022/01/02 03:11:18;;;;;;;;;16.33;13.33;;;;;13.62;67.32;101502.66;5074912;27;45315;-74
2022/01/02 03:13:44;;;;;;;;;14.00;12.67;;;;;13.61;67.20;101483.19;5080185;27;45433;-74
2022/01/02 03:16:09;;;;;;;;;18.00;14.00;;;;;13.59;67.23;101482.31;5075577;27;45438;-74
2022/01/02 03:18:35;;;;;;;;;14.67;12.67;;;;;13.63;67.15;101485.84;5097064;27;45713;-74
2022/01/02 03:21:00;;;;;;;;;20.33;14.00;;;;;13.63;66.97;101485.84;5078832;27;47542;-74
2022/01/02 03:23:25;;;;;;;;;14.67;12.00;;;;;13.57;66.65;101475.19;5097386;27;49088;-74
2022/01/02 03:25:51;;;;;;;;;13.00;11.00;;;;;13.66;66.67;101491.22;5089306;27;53783;-74
2022/01/02 03:28:16;;;;;;;;;15.00;13.67;;;;;13.65;66.97;101504.47;5097232;27;46578;-74
2022/01/02 03:30:42;;;;;;;;;15.67;10.00;;;;;13.59;66.93;101487.63;5077378;27;45505;-72
2022/01/02 03:33:08;;;;;;;;;14.00;12.67;;;;;13.64;66.15;101490.31;5094403;27;45215;-73
2022/01/02 03:35:33;;;;;;;;;12.00;8.67;;;;;13.67;66.24;101495.63;5058562;27;45235;-74
2022/01/02 03:37:58;;;;;;;;;14.00;14.00;;;;;13.65;66.47;101491.19;5077896;27;46423;-74
2022/01/02 03:40:24;;;;;;;;;16.00;14.00;;;;;13.59;66.54;101477.00;5097018;27;45354;-73
2022/01/02 03:42:49;;;;;;;;;13.33;12.00;;;;;13.71;66.57;101500.09;5072003;27;45420;-74
2022/01/02 03:45:15;;;;;;;;;12.33;11.67;;;;;13.73;66.74;101498.34;5079534;27;45234;-74
2022/01/02 03:47:40;;;;;;;;;15.00;12.00;;;;;13.68;66.68;101475.28;5095561;27;50599;-73
2022/01/02 03:50:06;;;;;;;;;13.00;13.00;;;;;13.74;66.47;101465.63;5096621;27;45524;-74
2022/01/02 03:52:31;;;;;;;;;16.33;15.00;;;;;13.74;66.53;101481.56;5073284;27;45603;-74
2022/01/02 03:54:57;;;;;;;;;13.67;11.33;;;;;13.71;66.49;101444.38;5097028;27;45443;-74
2022/01/02 03:57:22;;;;;;;;;13.67;11.67;;;;;13.70;66.35;101461.16;5078529;27;47615;-74
2022/01/02 03:59:48;;;;;;;;;13.00;13.00;;;;;13.75;66.29;101451.47;5077944;27;49424;-74
2022/01/02 04:02:13;;;;;;;;;16.67;13.00;;;;;13.75;66.78;101466.53;5096080;27;45291;-74
2022/01/02 04:04:39;;;;;;;;;14.00;12.67;;;;;13.73;66.67;101442.59;5092353;27;50259;-74
2022/01/02 04:07:04;;;;;;;;;14.67;13.00;;;;;13.76;66.22;101460.34;5094881;27;46015;-74
2022/01/02 04:09:30;;;;;;;;;14.00;13.00;;;;;13.78;66.43;101437.34;5095786;27;45447;-74
2022/01/02 04:11:55;;;;;;;;;15.67;14.33;;;;;13.71;66.33;101457.63;5096208;27;45446;-72
2022/01/02 04:14:21;;;;;;;;;13.00;12.33;;;;;13.78;65.84;101463.88;5096215;27;45571;-74
2022/01/02 04:16:46;;;;;;;;;14.00;11.67;;;;;13.81;66.03;101466.56;5059509;27;61058;-73
2022/01/02 04:19:11;;;;;;;;;12.00;12.00;;;;;13.81;65.62;101443.56;5095140;27;57328;-72
2022/01/02 04:21:37;;;;;;;;;15.33;12.00;;;;;13.77;65.92;101416.97;5083252;27;49294;-74
2022/01/02 04:24:02;;;;;;;;;15.33;13.67;;;;;13.80;65.85;101436.47;5078585;27;45615;-74
2022/01/02 04:26:28;;;;;;;;;13.67;12.00;;;;;13.83;65.94;101446.22;5096130;27;54710;-72
2022/01/02 04:28:53;;;;;;;;;13.00;10.00;;;;;13.82;65.95;101445.34;5090959;27;49748;-74
2022/01/02 04:31:18;;;;;;;;;16.00;13.00;;;;;13.84;65.70;101458.59;5076886;27;51823;-73
2022/01/02 04:33:44;;;;;;;;;14.00;14.00;;;;;13.83;66.29;101444.44;5095117;27;46247;-74
2022/01/02 04:36:09;;;;;;;;;16.00;10.67;;;;;13.82;66.14;101425.88;5093605;27;45863;-74
2022/01/02 04:38:36;;;;;;;;;12.00;12.00;;;;;13.80;66.05;101412.59;5095013;27;55673;-72
2022/01/02 04:41:02;;;;;;;;;12.33;12.33;;;;;13.79;66.32;101404.59;5096634;27;45416;-74
2022/01/02 04:43:28;;;;;;;;;14.33;13.00;;;;;13.68;65.89;101388.59;5093706;27;45310;-74
2022/01/02 04:45:53;;;;;;;;;13.67;13.00;;;;;13.79;66.29;101415.22;5077802;27;46842;-74
2022/01/02 04:48:18;;;;;;;;;15.00;12.00;;;;;13.80;65.43;101423.22;5076948;27;59217;-74
2022/01/02 04:50:44;;;;;;;;;13.67;12.67;;;;;13.79;65.41;101413.44;5073608;27;45426;-74
2022/01/02 04:53:09;;;;;;;;;13.00;13.00;;;;;13.83;65.65;101409.06;5095774;27;45590;-72
2022/01/02 04:55:35;;;;;;;;;17.67;14.00;;;;;13.83;65.46;101388.69;5095776;27;52355;-74
2022/01/02 04:58:00;;;;;;;;;16.00;12.33;;;;;13.81;65.87;101385.16;5059271;28;47043;-74
2022/01/02 05:00:26;;;;;;;;;17.67;16.00;;;;;13.84;65.87;101377.19;5093974;27;45519;-72
2022/01/02 05:02:52;;;;;;;;;14.67;13.33;;;;;13.85;65.32;101383.44;5076501;27;48476;-74
2022/01/02 05:05:18;;;;;;;;;15.00;13.33;;;;;13.85;65.70;101362.19;5098634;27;46506;-74
2022/01/02 05:07:43;;;;;;;;;15.67;14.00;;;;;13.84;65.71;101363.03;5080710;27;45455;-74
2022/01/02 05:10:08;;;;;;;;;15.33;13.33;;;;;13.78;65.49;101357.72;5098823;27;55679;-74
2022/01/02 05:12:34;;;;;;;;;11.33;10.67;;;;;13.79;65.23;101392.22;5054454;27;51323;-74
2022/01/02 05:15:00;;;;;;;;;17.33;13.33;;;;;13.76;65.58;101380.72;5075122;27;45902;-74
2022/01/02 05:17:25;;;;;;;;;13.67;11.33;;;;;13.82;64.97;101401.97;5074361;27;45982;-73
2022/01/02 05:19:51;;;;;;;;;11.33;11.00;;;;;13.75;65.27;101389.56;5098958;27;45895;-74
2022/01/02 05:22:16;;;;;;;;;15.33;12.00;;;;;13.83;65.43;101398.44;5061335;27;52309;-74
2022/01/02 05:24:41;;;;;;;;;14.00;11.67;;;;;13.84;65.50;101393.13;5080102;27;60040;-74
2022/01/02 05:27:07;;;;;;;;;15.67;14.00;;;;;13.85;64.47;101391.41;5096604;27;45407;-74
2022/01/02 05:29:32;;;;;;;;;11.00;9.00;;;;;13.83;65.26;101379.84;5094532;27;49102;-74
2022/01/02 05:31:57;;;;;;;;;11.00;10.67;;;;;13.83;65.55;101385.16;5095296;27;45833;-74
2022/01/02 05:34:23;;;;;;;;;13.33;12.00;;;;;13.83;65.23;101372.78;5094865;27;45297;-73
2022/01/02 05:36:48;;;;;;;;;12.00;10.67;;;;;13.83;65.61;101385.16;5095459;27;58349;-74
2022/01/02 05:39:20;;;;;;;;;13.00;10.33;;;;;13.82;65.75;101392.25;5094682;27;45374;-74
2022/01/02 05:41:46;;;;;;;;;15.33;13.00;;;;;13.83;65.70;101388.69;5078499;27;46111;-75
2022/01/02 05:44:11;;;;;;;;;13.00;12.00;;;;;13.81;65.26;101371.00;5079346;27;46107;-75
2022/01/02 05:46:37;;;;;;;;;11.67;11.00;;;;;13.75;65.75;101355.06;5098995;27;45310;-74
2022/01/02 05:49:02;;;;;;;;;11.00;11.00;;;;;13.82;65.87;101380.75;5097704;27;45346;-74
2022/01/02 05:51:27;;;;;;;;;16.00;11.00;;;;;13.78;65.17;101376.28;5076174;27;50113;-74
2022/01/02 05:53:53;;;;;;;;;8.67;8.67;;;;;13.82;65.00;101371.00;5098170;27;60492;-73
2022/01/02 05:56:18;;;;;;;;;12.33;10.33;;;;;13.83;65.76;101383.41;5097688;27;58065;-74
2022/01/02 05:58:43;;;;;;;;;13.33;12.00;;;;;13.84;65.94;101381.63;5094183;27;51244;-74
2022/01/02 06:01:09;;;;;;;;;7.00;7.00;;;;;13.81;65.31;101385.16;5098626;27;45355;-74
2022/01/02 06:03:34;;;;;;;;;11.00;8.00;;;;;13.74;65.42;101362.13;5097354;27;45673;-74
2022/01/02 06:06:00;;;;;;;;;9.67;8.00;;;;;13.81;65.66;101374.56;5095658;27;59132;-73
2022/01/02 06:08:25;;;;;;;;;7.67;7.67;;;;;13.81;65.81;101384.28;5079937;27;45570;-74
2022/01/02 06:10:51;;;;;;;;;11.33;10.33;;;;;13.79;65.63;101383.38;5098485;27;50121;-74
2022/01/02 06:13:16;;;;;;;;;12.00;11.00;;;;;13.82;65.32;101386.06;5077002;27;48549;-74
2022/01/02 06:15:41;;;;;;;;;11.00;8.33;;;;;13.79;65.10;101367.44;5059540;27;45506;-74
2022/01/02 06:18:07;;;;;;;;;8.00;8.00;;;;;13.86;65.45;101363.97;5091266;27;45335;-74
2022/01/02 06:20:32;;;;;;;;;13.33;8.33;;;;;13.85;65.06;101362.19;5071478;27;45216;-74
2022/01/02 06:22:58;;;;;;;;;11.00;9.00;;;;;13.88;64.76;101363.09;5098293;27;60566;-74
2022/01/02 06:25:23;;;;;;;;;13.00;9.00;;;;;13.92;64.54;101365.75;5097547;27;56107;-73
2022/01/02 06:27:49;;;;;;;;;12.00;7.33;;;;;13.94;65.21;101377.28;5098231;27;45357;-74
2022/01/02 06:30:14;;;;;;;;;13.00;9.00;;;;;13.94;64.83;101369.31;5063723;27;45410;-73
2022/01/02 06:32:39;;;;;;;;;7.00;7.00;;;;;13.97;63.75;101385.25;5097654;27;46600;-74
2022/01/02 06:35:05;;;;;;;;;6.67;6.67;;;;;13.97;64.83;101396.78;5075650;28;45288;-73
2022/01/02 06:37:30;;;;;;;;;9.67;9.67;;;;;13.94;65.00;101406.47;5094473;27;45516;-74
2022/01/02 06:39:56;;;;;;;;;10.00;6.00;;;;;13.95;64.45;101414.44;5097430;27;45568;-74
2022/01/02 06:42:21;;;;;;;;;10.67;8.00;;;;;13.94;64.50;101428.59;5076044;27;46623;-74
2022/01/02 06:44:47;;;;;;;;;8.00;8.00;;;;;13.92;63.90;101413.56;5078527;27;57303;-74
2022/01/02 06:47:12;;;;;;;;;6.67;6.67;;;;;13.89;64.83;101406.44;5098033;27;46700;-73
2022/01/02 06:49:37;;;;;;;;;13.33;8.00;;;;;13.85;64.43;101409.97;5091474;27;54104;-75
2022/01/02 06:52:03;;;;;;;;;11.00;9.00;;;;;13.74;64.67;101393.06;5078410;27;46616;-73
2022/01/02 06:54:28;;;;;;;;;7.00;7.00;;;;;13.76;64.88;101407.25;5097638;27;45250;-74
2022/01/02 06:56:54;;;;;;;;;10.00;8.33;;;;;13.66;64.93;101400.97;5075742;27;45676;-74
2022/01/02 06:59:19;;;;;;;;;10.67;7.33;;;;;13.70;64.86;101418.72;5079113;27;54543;-74
2022/01/02 07:01:44;;;;;;;;;7.00;7.00;;;;;13.70;64.71;101417.81;5097813;27;46356;-74
2022/01/02 07:04:10;;;;;;;;;8.00;8.00;;;;;13.59;64.58;101415.97;5096863;27;45243;-74
2022/01/02 07:06:35;;;;;;;;;9.33;7.00;;;;;13.63;64.84;101433.69;5075650;27;53286;-74
2022/01/02 07:09:01;;;;;;;;;12.00;9.67;;;;;13.65;64.93;101430.16;5078642;27;50133;-74
2022/01/02 07:11:26;;;;;;;;;10.33;8.00;;;;;13.67;64.15;101423.09;5073977;27;46953;-74
2022/01/02 07:13:52;;;;;;;;;9.33;9.33;;;;;13.62;65.46;101397.41;5096938;27;45472;-74
2022/01/02 07:16:17;;;;;;;;;12.67;8.00;;;;;13.69;65.25;101400.09;5079133;27;45590;-74
2022/01/02 07:18:42;;;;;;;;;8.33;6.33;;;;;13.80;64.67;101419.66;5072969;27;55028;-74
2022/01/02 07:21:08;;;;;;;;;10.00;8.00;;;;;13.80;64.98;101414.38;5060899;27;61003;-74
2022/01/02 07:23:33;;;;;;;;;9.33;8.00;;;;;13.70;64.39;101404.56;5092543;27;45210;-74
2022/01/02 07:25:59;;;;;;;;;8.33;8.33;;;;;13.79;64.57;101412.56;5079243;27;45260;-74
2022/01/02 07:28:24;;;;;;;;;12.00;8.00;;;;;13.82;65.06;101423.22;5090130;27;45171;-74
2022/01/02 07:30:49;;;;;;;;;9.00;7.33;;;;;13.80;64.40;101414.38;5097246;27;46671;-74
2022/01/02 07:33:15;;;;;;;;;11.67;9.00;;;;;13.85;64.87;101423.25;5095892;27;56832;-74
2022/01/02 07:35:40;;;;;;;;;7.67;7.33;;;;;13.86;64.80;101419.72;5096701;27;47523;-73
2022/01/02 07:38:05;;;;;;;;;12.33;10.33;;;;;13.88;64.56;101417.94;5094039;27;45426;-75
2022/01/02 07:40:31;;;;;;;;;10.33;7.67;;;;;13.88;64.81;101426.78;5069221;27;59958;-75
2022/01/02 07:42:56;;;;;;;;;10.67;9.00;;;;;13.85;64.35;101413.50;5098525;27;45456;-74
2022/01/02 07:45:22;;;;;;;;;12.00;8.00;;;;;13.81;64.63;101410.81;5093569;27;52434;-74
2022/01/02 07:47:47;;;;;;;;;9.67;9.33;;;;;13.76;64.56;101413.44;5095585;27;45466;-74
2022/01/02 07:50:12;;;;;;;;;14.00;11.00;;;;;13.70;64.99;101416.06;5095904;27;51519;-74
2022/01/02 07:52:38;;;;;;;;;11.33;9.33;;;;;13.60;65.14;101425.72;5094962;27;46205;-74
2022/01/02 07:55:04;;;;;;;;;7.33;7.00;;;;;13.62;64.97;101447.81;5096617;27;45314;-74
2022/01/02 07:57:29;;;;;;;;;11.00;8.33;;;;;13.59;65.01;101452.25;5088837;27;45437;-74
2022/01/02 07:59:54;;;;;;;;;11.67;11.67;;;;;13.57;65.58;101453.97;5095385;27;45622;-74
2022/01/02 08:02:20;;;;;;;;;11.00;9.33;;;;;13.53;65.47;101468.06;5095651;27;58127;-75
2022/01/02 08:04:45;;;;;;;;;10.67;7.00;;;;;13.50;65.80;101478.69;5088353;27;47910;-74
2022/01/02 08:07:11;;;;;;;;;8.33;8.33;;;;;13.49;65.58;101479.56;5075604;27;48674;-74
2022/01/02 08:09:36;;;;;;;;;11.00;9.33;;;;;13.48;65.57;101480.44;5093034;27;57137;-74
2022/01/02 08:12:01;;;;;;;;;13.00;8.00;;;;;13.27;66.15;101465.19;5095566;27;53052;-74
2022/01/02 08:14:27;;;;;;;;;12.67;10.00;;;;;13.43;65.80;101501.59;5095623;27;46468;-74
2022/01/02 08:16:53;;;;;;;;;11.00;11.00;;;;;13.42;66.38;101505.09;5077748;27;53030;-74
2022/01/02 08:19:18;;;;;;;;;12.33;12.33;;;;;13.41;66.12;101499.81;5090359;27;45847;-74
2022/01/02 08:21:44;;;;;;;;;9.33;9.33;;;;;13.41;66.46;101507.75;5090602;27;54342;-75
2022/01/02 08:24:09;;;;;;;;;10.00;9.67;;;;;13.38;66.71;101500.69;5095197;27;45960;-74
2022/01/02 08:26:34;;;;;;;;;11.00;11.00;;;;;13.30;66.72;101487.31;5078343;27;45663;-74
2022/01/02 08:29:00;;;;;;;;;14.00;11.00;;;;;13.40;66.46;101506.88;5093748;27;55223;-74
2022/01/02 08:31:29;;;;;;;;;10.00;10.00;;;;;13.41;66.82;101511.28;5095903;27;45413;-74
2022/01/02 08:33:54;;;;;;;;;7.67;7.67;;;;;13.31;67.00;101496.16;5095678;27;45607;-74
2022/01/02 08:36:20;;;;;;;;;11.00;10.00;;;;;13.38;67.72;101499.78;5095433;27;55183;-74
2022/01/02 08:38:47;;;;;;;;;8.67;8.67;;;;;13.38;67.60;101499.78;5076555;27;45873;-75
2022/01/02 08:41:13;;;;;;;;;13.00;8.00;;;;;13.42;67.40;101507.75;5099128;27;45323;-74
2022/01/02 08:43:38;;;;;;;;;10.67;8.67;;;;;13.42;67.47;101507.75;5080621;27;45540;-74
2022/01/02 08:46:04;;;;;;;;;8.67;8.67;;;;;13.43;67.82;101514.00;5095560;27;45320;-74
2022/01/02 08:48:29;;;;;;;;;8.33;8.00;;;;;13.42;67.37;101513.06;5078216;27;52331;-74
2022/01/02 08:50:55;;;;;;;;;8.33;7.00;;;;;13.43;67.79;101506.91;5094343;27;45523;-73
2022/01/02 08:53:20;;;;;;;;;9.67;9.67;;;;;13.46;67.76;101514.00;5078595;27;45765;-74
2022/01/02 08:55:46;;;;;;;;;16.00;10.67;;;;;13.39;67.39;101512.16;5091568;27;45748;-74
2022/01/02 08:58:11;;;;;;;;;16.00;9.33;;;;;13.40;67.90;101509.53;5094690;27;46395;-74
2022/01/02 09:00:36;;;;;;;;;16.67;9.33;;;;;13.49;68.15;101525.53;5079061;27;58672;-74
2022/01/02 09:03:02;;;;;;;;;14.67;10.00;;;;;13.51;67.96;101528.19;5078214;27;45662;-75
2022/01/02 09:05:27;;;;;;;;;9.67;9.67;;;;;13.51;68.26;101539.69;5096699;27;45685;-79
2022/01/02 09:07:54;;;;;;;;;13.67;11.67;;;;;13.42;68.46;101518.38;5058563;27;46008;-80
2022/01/02 09:10:19;;;;;;;;;9.33;7.00;;;;;13.48;68.81;101541.47;5081273;27;45425;-80
2022/01/02 09:12:45;;;;;;;;;7.67;7.67;;;;;13.45;68.39;101534.34;5061403;27;45604;-78
2022/01/02 09:15:11;;;;;;;;;13.00;12.00;;;;;13.43;68.79;101537.88;5076252;27;46581;-79
2022/01/02 09:17:36;;;;;;;;;11.67;7.00;;;;;13.38;69.06;101540.47;5037857;27;48093;-77
2022/01/02 09:20:02;;;;;;;;;8.67;7.00;;;;;13.36;69.33;101537.78;5075648;27;45413;-79
2022/01/02 09:22:27;;;;;;;;;10.00;8.00;;;;;13.34;69.17;101543.94;5079598;27;45353;-79
2022/01/02 09:24:53;;;;;;;;;10.00;8.33;;;;;13.41;69.25;101552.84;5044784;27;45611;-78
2022/01/02 09:27:19;;;;;;;;;8.00;6.00;;;;;13.32;69.54;101546.59;5098406;27;46851;-79
2022/01/02 09:29:44;;;;;;;;;12.67;10.00;;;;;13.37;69.57;101551.94;5094363;27;46500;-79
2022/01/02 09:32:09;;;;;;;;;9.67;9.00;;;;;13.38;69.36;101564.34;5050872;27;55201;-78
2022/01/02 09:34:35;;;;;;;;;12.00;10.00;;;;;13.40;69.33;101551.97;5045312;27;45611;-74
2022/01/02 09:37:01;;;;;;;;;12.00;8.33;;;;;13.43;69.41;101545.81;5093623;27;57975;-75
2022/01/02 09:39:27;;;;;;;;;11.67;9.00;;;;;13.45;69.56;101544.06;5073183;27;45396;-74
2022/01/02 09:41:53;;;;;;;;;10.00;6.00;;;;;13.46;69.20;101541.41;5096463;27;45500;-75
2022/01/02 09:44:18;;;;;;;;;12.00;10.33;;;;;13.51;69.34;101539.69;5079299;27;45494;-73
2022/01/02 09:46:44;;;;;;;;;9.67;8.00;;;;;13.56;69.23;101545.06;5171020;22;47686;-73
2022/01/02 09:49:09;;;;;;;;;8.00;8.00;;;;;13.58;69.25;101540.66;5036945;28;57379;-75
2022/01/02 09:51:35;;;;;;;;;9.33;8.67;;;;;13.62;69.40;101553.97;5055497;28;45550;-75
2022/01/02 09:54:00;;;;;;;;;7.00;7.00;;;;;13.65;68.97;101554.88;5057039;28;45634;-74
2022/01/02 09:56:25;;;;;;;;;8.33;7.00;;;;;13.67;69.11;101537.22;5077019;28;46757;-75
2022/01/02 09:58:51;;;;;;;;;12.00;8.00;;;;;13.66;69.31;101532.78;5077382;28;45299;-74
2022/01/02 10:01:19;;;;;;;;;8.33;8.33;;;;;13.77;69.27;101539.97;5056668;28;45552;-74
2022/01/02 10:03:51;;;;;;;;;8.67;6.67;;;;;13.85;69.29;101548.91;5071741;28;45656;-74
2022/01/02 10:06:17;;;;;;;;;12.67;8.67;;;;;13.91;68.75;101541.88;5063328;28;45741;-74
2022/01/02 10:08:43;;;;;;;;;10.33;7.00;;;;;13.90;68.76;101538.28;5072736;28;45532;-75
2022/01/02 10:11:21;;;;;;;;;11.00;8.00;;;;;14.00;68.38;101558.75;5077894;28;45444;-74
2022/01/02 10:13:55;;;;;;;;;6.67;5.00;;;;;14.08;68.64;101550.84;5077938;28;45561;-73
2022/01/02 10:16:31;;;;;;;;;9.33;6.00;;;;;14.16;68.48;101563.28;5078339;28;47022;-74
2022/01/02 10:18:57;;;;;;;;;9.00;6.00;;;;;14.15;68.48;101531.44;5058949;28;45317;-74
2022/01/02 10:21:38;;;;;;;;;4.67;4.67;;;;;14.35;68.33;101548.41;5075728;28;45585;-74
2022/01/02 10:24:11;;;;;;;;;6.00;6.00;;;;;14.49;67.77;101540.56;5075267;28;45514;-74
2022/01/02 10:26:37;;;;;;;;;5.67;5.00;;;;;14.60;67.98;101549.50;5076972;27;46160;-76
2022/01/02 10:29:12;;;;;;;;;5.00;5.00;;;;;14.76;67.30;101554.91;5057533;28;45522;-75
2022/01/02 10:31:37;;;;;;;;;4.33;3.67;;;;;14.82;67.31;101550.50;5077147;28;47348;-74
2022/01/02 10:34:03;;;;;;;;;5.33;4.00;;;;;14.92;67.06;101549.66;5058936;28;45517;-74
2022/01/02 10:36:28;;;;;;;;;5.00;5.00;;;;;15.01;66.99;101559.44;5077541;28;46481;-74
2022/01/02 10:39:12;;;;;;;;;6.67;4.00;;;;;15.08;66.52;101563.03;5072515;28;45419;-74
2022/01/02 10:41:41;;;;;;;;;3.33;3.00;;;;;15.12;66.50;101555.03;5069945;28;45299;-76
2022/01/02 10:44:16;;;;;;;;;4.00;3.00;;;;;15.15;66.61;101559.50;5059736;28;45369;-75
2022/01/02 10:47:15;;;;;;;;;5.00;3.67;;;;;15.21;65.83;101535.56;5076763;28;46642;-74
2022/01/02 10:50:02;;;;;;;;;6.67;2.00;;;;;15.22;65.29;101548.00;5064235;28;45563;-74
2022/01/02 10:52:41;;;;;;;;;0.67;0.67;;;;;15.25;65.56;101542.69;5058274;28;45354;-74
2022/01/02 10:55:25;;;;;;;;;5.00;2.67;;;;;15.20;66.02;101533.81;5076528;28;45764;-75
2022/01/02 10:57:53;;;;;;;;;3.00;2.00;;;;;15.28;65.14;101541.78;5076400;28;46669;-74
2022/01/02 11:00:23;;;;;;;;;6.00;2.00;;;;;15.25;65.68;101534.72;5076848;28;45418;-75
2022/01/02 11:02:49;;;;;;;;;2.00;2.00;;;;;15.32;65.25;101548.91;5068163;28;45396;-74
2022/01/02 11:05:15;;;;;;;;;2.67;2.67;;;;;15.28;65.56;101539.13;5042286;28;45626;-75
2022/01/02 11:07:46;;;;;;;;;4.67;3.00;;;;;15.37;65.20;101555.13;5057839;28;46367;-74
2022/01/02 11:10:17;;;;;;;;;3.33;2.00;;;;;15.36;65.37;101558.69;5076976;28;45283;-73
2022/01/02 11:12:43;;;;;;;;;3.00;2.00;;;;;15.33;65.51;101543.59;5052760;28;45341;-75
2022/01/02 11:15:27;;;;;;;;;3.00;2.00;;;;;15.46;65.20;101563.16;5049864;28;45537;-76
2022/01/02 11:17:53;;;;;;;;;2.67;2.67;;;;;15.44;65.51;101531.19;5065239;28;46484;-73
2022/01/02 11:20:20;;;;;;;;;3.67;2.00;;;;;15.56;65.10;101556.09;5055169;28;63625;-75